createdAt,value
2022-12-19T00:01:52.237Z,49.42
2022-12-19T00:04:20.123Z,52.65
2022-12-19T00:06:46.660Z,52.60
2022-12-19T00:09:13.065Z,53.63
2022-12-19T00:11:39.960Z,54.92
2022-12-19T00:14:06.844Z,56.55
2022-12-19T00:16:33.594Z,55.72
2022-12-19T00:19:01.173Z,54.70
2022-12-19T00:21:28.846Z,54.08
2022-12-19T00:23:55.383Z,50.83
2022-12-19T00:26:23.449Z,54.55
2022-12-19T00:28:51.668Z,50.58
2022-12-19T00:31:18.870Z,49.63
2022-12-19T00:33:46.072Z,49.75
2022-12-19T00:36:13.689Z,49.22
2022-12-19T00:38:42.651Z,51.80
2022-12-19T00:41:10.008Z,49.88
2022-12-19T00:43:36.472Z,53.38
2022-12-19T00:46:06.778Z,56.25
2022-12-19T00:48:33.608Z,56.75
2022-12-19T00:51:11.206Z,58.22
2022-12-19T00:53:37.786Z,56.08
2022-12-19T00:56:05.464Z,57.50
2022-12-19T00:58:35.491Z,55.30
2022-12-19T01:01:06.485Z,60.13
2022-12-19T01:03:32.900Z,55.97
2022-12-19T01:05:59.373Z,57.50
2022-12-19T01:08:25.831Z,58.10
2022-12-19T01:10:53.673Z,50.42
2022-12-19T01:13:20.953Z,53.42
2022-12-19T01:15:47.515Z,52.42
2022-12-19T01:18:14.107Z,50.92
2022-12-19T01:20:41.460Z,56.10
2022-12-19T01:23:08.974Z,57.53
2022-12-19T01:25:36.883Z,60.38
2022-12-19T01:28:06.553Z,54.90
2022-12-19T01:30:33.251Z,52.20
2022-12-19T01:33:00.714Z,50.85
2022-12-19T01:35:27.935Z,56.28
2022-12-19T01:38:05.538Z,55.92
2022-12-19T01:40:35.136Z,50.97
2022-12-19T01:43:02.278Z,56.88
2022-12-19T01:45:34.042Z,55.75
2022-12-19T01:48:04.676Z,49.35
2022-12-19T01:50:39.197Z,57.60
2022-12-19T01:53:09.428Z,56.85
2022-12-19T01:55:37.179Z,52.33
2022-12-19T01:58:03.678Z,50.25
2022-12-19T02:00:30.192Z,51.20
2022-12-19T02:03:06.701Z,55.72
2022-12-19T02:05:35.350Z,54.83
2022-12-19T02:08:01.819Z,53.47
2022-12-19T02:10:29.411Z,51.33
2022-12-19T02:12:56.586Z,58.22
2022-12-19T02:15:23.924Z,59.38
2022-12-19T02:18:07.079Z,58.55
2022-12-19T02:20:45.694Z,55.00
2022-12-19T02:23:35.523Z,56.92
2022-12-19T02:26:21.066Z,59.00
2022-12-19T02:28:51.710Z,55.65
2022-12-19T02:31:21.390Z,55.03
2022-12-19T02:33:59.910Z,54.47
2022-12-19T02:36:41.946Z,53.35
2022-12-19T02:39:31.446Z,59.65
2022-12-19T02:42:01.716Z,56.65
2022-12-19T02:44:37.365Z,60.05
2022-12-19T02:47:05.479Z,63.03
2022-12-19T02:49:34.917Z,58.63
2022-12-19T02:52:09.230Z,56.00
2022-12-19T02:54:35.761Z,64.25
2022-12-19T02:57:09.482Z,56.63
2022-12-19T02:59:41.844Z,55.88
2022-12-19T03:02:21.553Z,53.75
2022-12-19T03:04:54.261Z,60.17
2022-12-19T03:07:20.822Z,54.28
2022-12-19T03:10:10.597Z,54.50
2022-12-19T03:12:40.642Z,56.63
2022-12-19T03:15:07.458Z,53.70
2022-12-19T03:17:37.519Z,54.80
2022-12-19T03:20:26.001Z,57.05
2022-12-19T03:22:52.732Z,51.78
2022-12-19T03:25:20.450Z,58.13
2022-12-19T03:27:48.238Z,57.42
2022-12-19T03:30:14.937Z,62.83
2022-12-19T03:32:42.583Z,53.60
2022-12-19T03:35:19.614Z,55.53
2022-12-19T03:37:47.704Z,56.72
2022-12-19T03:40:24.496Z,55.20
2022-12-19T03:43:12.687Z,57.78
2022-12-19T03:46:01.472Z,57.58
2022-12-19T03:48:31.106Z,56.45
2022-12-19T03:51:15.673Z,58.85
2022-12-19T03:56:16.925Z,53.40
2022-12-19T03:58:46.732Z,55.78
2022-12-19T04:01:13.284Z,55.28
2022-12-19T04:03:39.749Z,51.67
2022-12-19T04:06:06.394Z,55.53
2022-12-19T04:08:33.428Z,56.17
2022-12-19T04:11:03.354Z,57.17
2022-12-19T04:13:33.757Z,56.70
2022-12-19T04:16:04.577Z,53.80
2022-12-19T04:18:31.374Z,54.90
2022-12-19T04:21:08.109Z,55.03
2022-12-19T04:23:38.123Z,54.15
2022-12-19T04:26:05.277Z,53.65
2022-12-19T04:28:34.800Z,50.00
2022-12-19T04:31:01.362Z,54.30
2022-12-19T04:33:27.756Z,59.38
2022-12-19T04:35:54.366Z,52.63
2022-12-19T04:38:20.723Z,52.17
2022-12-19T04:40:47.088Z,56.38
2022-12-19T04:43:13.496Z,50.10
2022-12-19T04:45:43.121Z,57.78
2022-12-19T04:48:09.670Z,55.15
2022-12-19T04:50:36.091Z,57.20
2022-12-19T04:53:02.591Z,55.28
2022-12-19T04:55:29.037Z,62.90
2022-12-19T04:57:55.532Z,54.00
2022-12-19T05:03:10.278Z,55.13
2022-12-19T05:05:36.678Z,52.17
2022-12-19T05:08:03.073Z,54.42
2022-12-19T05:10:29.475Z,61.20
2022-12-19T05:12:55.867Z,61.70
2022-12-19T05:15:22.266Z,67.18
2022-12-19T05:17:48.703Z,60.63
2022-12-19T05:20:15.092Z,64.80
2022-12-19T05:22:41.516Z,70.85
2022-12-19T05:25:08.210Z,65.63
2022-12-19T05:27:34.629Z,75.18
2022-12-19T05:30:01.399Z,56.38
2022-12-19T05:32:30.233Z,62.42
2022-12-19T05:34:56.578Z,60.88
2022-12-19T05:37:22.925Z,59.75
2022-12-19T05:39:49.322Z,55.22
2022-12-19T05:42:15.690Z,57.50
2022-12-19T05:44:42.045Z,57.67
2022-12-19T05:47:08.419Z,52.88
2022-12-19T05:49:34.799Z,56.15
2022-12-19T05:52:01.254Z,56.83
2022-12-19T05:54:28.241Z,53.75
2022-12-19T05:56:54.639Z,57.83
2022-12-19T05:59:21.116Z,57.63
2022-12-19T06:01:47.582Z,54.28
2022-12-19T06:04:14.099Z,57.83
2022-12-19T06:06:40.597Z,53.20
2022-12-19T06:09:07.132Z,52.45
2022-12-19T06:11:33.497Z,55.28
2022-12-19T06:13:59.927Z,57.03
2022-12-19T06:16:26.420Z,56.35
2022-12-19T06:18:52.856Z,55.90
2022-12-19T06:21:20.563Z,58.63
2022-12-19T06:23:47.109Z,57.53
2022-12-19T06:26:19.110Z,57.55
2022-12-19T06:28:46.712Z,54.75
2022-12-19T06:31:13.528Z,54.70
2022-12-19T06:33:39.987Z,52.08
2022-12-19T06:36:15.785Z,52.35
2022-12-19T06:38:42.230Z,52.25
2022-12-19T06:41:28.490Z,52.80
2022-12-19T06:43:57.623Z,60.20
2022-12-19T06:46:24.007Z,58.72
2022-12-19T06:48:50.933Z,56.47
2022-12-19T06:51:17.352Z,55.53
2022-12-19T06:53:43.795Z,53.55
2022-12-19T06:56:11.781Z,56.97
2022-12-19T06:58:38.685Z,58.00
2022-12-19T07:01:05.196Z,55.33
2022-12-19T07:03:41.223Z,55.15
2022-12-19T07:06:07.960Z,58.58
2022-12-19T07:08:34.335Z,58.50
2022-12-19T07:11:00.750Z,53.38
2022-12-19T07:13:27.501Z,54.22
2022-12-19T07:15:54.794Z,51.72
2022-12-19T07:18:21.158Z,55.90
2022-12-19T07:20:47.587Z,56.42
2022-12-19T07:23:16.615Z,57.15
2022-12-19T07:25:43.056Z,52.78
2022-12-19T07:28:11.795Z,54.78
2022-12-19T07:30:38.217Z,57.15
2022-12-19T07:33:04.576Z,57.80
2022-12-19T07:35:31.232Z,55.30
2022-12-19T07:38:04.084Z,53.58
2022-12-19T07:40:32.423Z,56.22
2022-12-19T07:42:59.445Z,59.25
2022-12-19T07:45:26.263Z,52.88
2022-12-19T07:47:52.725Z,54.58
2022-12-19T07:50:19.087Z,55.20
2022-12-19T07:52:45.453Z,59.03
2022-12-19T07:55:11.876Z,54.55
2022-12-19T07:57:38.243Z,57.47
2022-12-19T08:00:05.086Z,52.83
2022-12-19T08:05:05.971Z,54.30
2022-12-19T08:07:32.541Z,49.63
2022-12-19T08:09:58.954Z,58.40
2022-12-19T08:12:25.309Z,58.92
2022-12-19T08:14:56.851Z,51.28
2022-12-19T08:17:23.912Z,52.03
2022-12-19T08:19:50.385Z,55.25
2022-12-19T08:22:16.742Z,55.45
2022-12-19T08:24:43.215Z,58.47
2022-12-19T08:27:09.630Z,54.80
2022-12-19T08:29:36.292Z,53.17
2022-12-19T08:32:02.675Z,61.80
2022-12-19T08:34:29.110Z,52.92
2022-12-19T08:36:55.507Z,54.28
2022-12-19T08:39:21.933Z,55.03
2022-12-19T08:41:48.351Z,55.30
2022-12-19T08:44:16.258Z,55.08
2022-12-19T08:46:49.413Z,53.38
2022-12-19T08:49:16.497Z,55.90
2022-12-19T08:51:42.888Z,56.75
2022-12-19T08:54:11.774Z,55.13
2022-12-19T08:56:42.225Z,51.75
2022-12-19T08:59:13.382Z,57.67
2022-12-19T09:01:41.506Z,57.50
2022-12-19T09:04:56.787Z,55.80
2022-12-19T09:06:54.304Z,51.75
2022-12-19T09:09:20.761Z,54.50
2022-12-19T09:11:48.282Z,51.00
2022-12-19T09:14:15.108Z,55.13
2022-12-19T09:16:47.335Z,48.30
2022-12-19T09:19:16.294Z,53.35
2022-12-19T09:21:42.865Z,49.78
2022-12-19T09:24:09.459Z,55.35
2022-12-19T09:26:38.532Z,50.22
2022-12-19T09:29:11.017Z,56.35
2022-12-19T09:31:47.613Z,51.45
2022-12-19T09:34:16.801Z,58.60
2022-12-19T09:36:43.277Z,48.20
2022-12-19T09:39:10.048Z,52.47
2022-12-19T09:42:01.441Z,60.75
2022-12-19T09:44:28.076Z,55.20
2022-12-19T09:47:00.575Z,56.40
2022-12-19T09:49:29.776Z,50.22
2022-12-19T09:52:00.577Z,53.65
2022-12-19T09:54:44.921Z,52.00
2022-12-19T09:57:28.718Z,60.55
2022-12-19T09:59:57.832Z,55.28
2022-12-19T10:02:29.888Z,48.97
2022-12-19T10:05:41.218Z,58.00
2022-12-19T10:08:18.952Z,52.97
2022-12-19T10:12:46.143Z,52.55
2022-12-19T10:13:44.007Z,53.95
2022-12-19T10:16:16.363Z,52.60
2022-12-19T10:18:51.271Z,52.47
2022-12-19T10:22:07.410Z,53.85
2022-12-19T10:24:46.427Z,57.53
2022-12-19T10:27:33.948Z,60.42
2022-12-19T10:30:12.667Z,55.17
2022-12-19T10:33:05.508Z,53.33
2022-12-19T10:35:36.114Z,64.38
2022-12-19T10:38:11.697Z,61.92
2022-12-19T10:40:47.797Z,60.42
2022-12-19T10:43:30.571Z,56.17
2022-12-19T10:46:02.594Z,59.47
2022-12-19T10:48:31.040Z,52.80
2022-12-19T10:50:57.926Z,58.00
2022-12-19T10:53:29.041Z,54.38
2022-12-19T10:55:59.736Z,60.58
2022-12-19T10:58:26.205Z,53.65
2022-12-19T11:00:58.422Z,59.33
2022-12-19T11:03:25.047Z,54.25
2022-12-19T11:05:58.121Z,54.33
2022-12-19T11:08:29.581Z,56.00
2022-12-19T11:12:53.139Z,51.00
2022-12-19T11:19:13.351Z,53.78
2022-12-19T11:20:28.160Z,54.05
2022-12-19T11:29:16.270Z,58.88
2022-12-19T11:30:05.457Z,58.88
2022-12-19T11:30:45.316Z,58.22
2022-12-19T11:30:45.319Z,68.43
2022-12-19T11:34:06.086Z,55.60
2022-12-19T11:38:59.346Z,52.72
2022-12-19T11:41:25.929Z,53.92
2022-12-19T11:43:56.950Z,53.47
2022-12-19T11:46:46.673Z,53.10
2022-12-19T11:49:13.077Z,49.38
2022-12-19T11:51:40.098Z,52.50
2022-12-19T11:54:13.894Z,54.80
2022-12-19T11:56:40.428Z,52.97
2022-12-19T11:59:13.025Z,55.63
2022-12-19T12:01:39.494Z,48.90
2022-12-19T12:04:30.042Z,49.90
2022-12-19T12:06:57.620Z,51.47
2022-12-19T12:14:05.866Z,47.50
2022-12-19T12:20:11.265Z,51.13
2022-12-19T12:27:34.804Z,50.28
2022-12-19T12:31:04.850Z,52.10
2022-12-19T12:31:19.377Z,47.47
2022-12-19T12:31:40.239Z,48.17
2022-12-19T12:31:46.925Z,46.90
2022-12-19T12:31:52.364Z,48.67
2022-12-19T12:35:46.914Z,49.25
2022-12-19T12:39:10.956Z,49.05
2022-12-19T12:42:03.757Z,50.95
2022-12-19T12:44:37.278Z,50.35
2022-12-19T12:47:13.898Z,50.78
2022-12-19T12:49:42.761Z,50.38
2022-12-19T12:52:14.096Z,51.25
2022-12-19T12:54:44.013Z,55.78
2022-12-19T12:57:17.220Z,51.45
2022-12-19T12:59:45.528Z,55.45
2022-12-19T13:02:21.609Z,50.30
2022-12-19T13:04:56.193Z,52.60
2022-12-19T13:07:42.897Z,50.70
2022-12-19T13:10:22.328Z,50.58
2022-12-19T13:13:02.777Z,48.58
2022-12-19T13:15:32.382Z,54.25
2022-12-19T13:18:17.324Z,53.50
2022-12-19T13:20:46.245Z,48.28
2022-12-19T13:23:23.583Z,51.47
2022-12-19T13:25:51.947Z,53.17
2022-12-19T13:28:21.246Z,52.80
2022-12-19T13:31:18.732Z,47.58
2022-12-19T13:33:55.879Z,52.42
2022-12-19T13:39:56.404Z,48.95
2022-12-19T13:47:20.319Z,44.88
2022-12-19T13:49:50.182Z,53.58
2022-12-19T13:52:17.237Z,52.47
2022-12-19T13:54:48.471Z,56.47
2022-12-19T13:57:28.802Z,59.40
2022-12-19T14:00:00.431Z,50.63
2022-12-19T14:02:32.784Z,59.72
2022-12-19T14:05:49.386Z,53.03
2022-12-19T14:08:16.133Z,49.50
2022-12-19T14:11:35.232Z,53.72
2022-12-19T14:13:56.861Z,49.75
2022-12-19T14:16:43.375Z,63.75
2022-12-19T14:19:20.630Z,68.90
2022-12-19T14:22:10.657Z,69.95
2022-12-19T14:24:33.464Z,74.03
2022-12-19T14:28:19.583Z,70.03
2022-12-19T14:30:27.323Z,54.85
2022-12-19T14:33:39.795Z,54.90
2022-12-19T14:36:11.469Z,51.97
2022-12-19T14:39:20.170Z,49.55
2022-12-19T14:41:09.283Z,58.10
2022-12-19T14:43:59.409Z,78.85
2022-12-19T14:52:44.956Z,87.40
2022-12-19T14:54:18.497Z,58.95
2022-12-19T14:54:48.352Z,62.38
2022-12-19T14:56:03.923Z,55.53
2022-12-19T14:58:54.063Z,52.65
2022-12-19T15:01:09.574Z,54.15
2022-12-19T15:03:42.039Z,59.65
2022-12-19T15:06:32.090Z,56.00
2022-12-19T15:11:05.458Z,57.10
2022-12-19T15:14:20.828Z,62.53
2022-12-19T15:15:16.294Z,53.33
2022-12-19T15:17:50.012Z,62.43
2022-12-19T15:20:16.991Z,53.05
2022-12-19T15:22:46.324Z,59.40
2022-12-19T15:25:35.889Z,56.25
2022-12-19T15:28:02.377Z,52.22
2022-12-19T15:30:29.577Z,55.92
2022-12-19T15:32:56.007Z,52.92
2022-12-19T15:35:22.543Z,54.95
2022-12-19T15:37:48.932Z,51.45
2022-12-19T15:40:16.948Z,50.42
2022-12-19T15:42:48.011Z,52.15
2022-12-19T15:45:15.986Z,48.58
2022-12-19T15:47:43.138Z,56.00
2022-12-19T15:50:23.090Z,54.20
2022-12-19T15:52:50.238Z,48.47
2022-12-19T15:55:17.964Z,45.25
2022-12-19T15:57:46.493Z,52.95
2022-12-19T16:00:18.458Z,58.75
2022-12-19T16:05:32.020Z,56.85
2022-12-19T16:07:58.939Z,53.38
2022-12-19T16:10:26.299Z,56.25
2022-12-19T16:12:57.514Z,51.05
2022-12-19T16:15:26.740Z,53.75
2022-12-19T16:17:53.864Z,56.45
2022-12-19T16:20:24.262Z,59.70
2022-12-19T16:22:50.732Z,53.78
2022-12-19T16:25:17.356Z,52.20
2022-12-19T16:27:44.193Z,54.65
2022-12-19T16:30:18.958Z,50.05
2022-12-19T16:32:45.999Z,49.72
2022-12-19T16:35:17.450Z,48.22
2022-12-19T16:37:50.511Z,47.22
2022-12-19T16:40:21.150Z,48.83
2022-12-19T16:42:47.951Z,50.42
2022-12-19T16:45:17.993Z,56.83
2022-12-19T16:47:44.719Z,51.05
2022-12-19T16:50:16.550Z,52.22
2022-12-19T16:52:43.003Z,50.70
2022-12-19T16:55:09.764Z,58.63
2022-12-19T16:57:36.306Z,58.63
2022-12-19T17:00:03.062Z,61.33
2022-12-19T17:02:29.619Z,51.85
2022-12-19T17:04:56.621Z,53.45
2022-12-19T17:07:23.073Z,51.15
2022-12-19T17:09:49.727Z,49.03
2022-12-19T17:12:17.863Z,55.33
2022-12-19T17:14:44.785Z,54.90
2022-12-19T17:17:15.446Z,61.15
2022-12-19T17:19:44.923Z,53.38
2022-12-19T17:22:12.942Z,61.45
2022-12-19T17:24:39.427Z,68.82
2022-12-19T17:27:06.287Z,59.00
2022-12-19T17:29:32.959Z,56.75
2022-12-19T17:31:59.556Z,55.80
2022-12-19T17:34:28.675Z,51.97
2022-12-19T17:36:55.249Z,56.20
2022-12-19T17:39:24.355Z,48.75
2022-12-19T17:41:51.050Z,54.03
2022-12-19T17:44:17.766Z,49.80
2022-12-19T17:46:45.894Z,49.53
2022-12-19T17:49:21.711Z,47.17
2022-12-19T17:51:50.409Z,51.25
2022-12-19T17:54:17.021Z,47.88
2022-12-19T17:56:43.524Z,52.97
2022-12-19T17:59:10.208Z,51.13
2022-12-19T18:01:37.310Z,51.40
2022-12-19T18:04:04.207Z,47.00
2022-12-19T18:06:30.654Z,50.65
2022-12-19T18:08:57.116Z,49.65
2022-12-19T18:11:25.419Z,49.17
2022-12-19T18:13:52.519Z,48.30
2022-12-19T18:16:20.864Z,45.60
2022-12-19T18:18:47.649Z,50.80
2022-12-19T18:21:16.852Z,46.45
2022-12-19T18:23:43.739Z,48.25
2022-12-19T18:26:11.058Z,50.50
2022-12-19T18:28:38.122Z,51.50
2022-12-19T18:31:12.674Z,62.60
2022-12-19T18:33:40.175Z,53.05
2022-12-19T18:36:07.720Z,51.92
2022-12-19T18:38:34.122Z,50.85
2022-12-19T18:41:00.619Z,54.25
2022-12-19T18:43:27.098Z,51.47
2022-12-19T18:45:53.661Z,53.90
2022-12-19T18:48:33.529Z,49.75
2022-12-19T18:51:00.611Z,51.83
2022-12-19T18:53:35.179Z,54.33
2022-12-19T18:56:03.142Z,53.15
2022-12-19T18:58:29.541Z,56.97
2022-12-19T19:00:59.409Z,55.97
2022-12-19T19:03:33.099Z,54.65
2022-12-19T19:06:00.153Z,54.08
2022-12-19T19:08:28.306Z,57.05
2022-12-19T19:11:04.464Z,54.80
2022-12-19T19:13:31.488Z,59.22
2022-12-19T19:15:59.692Z,76.35
2022-12-19T19:18:29.766Z,64.13
2022-12-19T19:21:01.023Z,72.72
2022-12-19T19:23:30.591Z,63.38
2022-12-19T19:25:57.020Z,58.75
2022-12-19T19:28:23.457Z,55.67
2022-12-19T19:30:51.451Z,52.75
2022-12-19T19:33:22.753Z,50.97
2022-12-19T19:35:51.489Z,52.85
2022-12-19T19:38:18.358Z,58.22
2022-12-19T19:40:44.743Z,57.88
2022-12-19T19:43:11.141Z,54.80
2022-12-19T19:45:42.964Z,66.28
2022-12-19T19:48:10.073Z,65.57
2022-12-19T19:50:36.568Z,63.42
2022-12-19T19:53:02.946Z,57.58
2022-12-19T19:55:29.419Z,59.38
2022-12-19T19:57:55.822Z,54.92
2022-12-19T20:00:22.457Z,66.05
2022-12-19T20:02:49.238Z,76.10
2022-12-19T20:05:15.789Z,71.68
2022-12-19T20:07:42.166Z,95.55
2022-12-19T20:10:09.171Z,77.05
2022-12-19T20:12:35.866Z,69.82
2022-12-19T20:15:02.380Z,99.10
2022-12-19T20:17:28.740Z,68.88
2022-12-19T20:19:55.121Z,65.18
2022-12-19T20:22:21.552Z,62.88
2022-12-19T20:24:48.089Z,77.78
2022-12-19T20:27:14.486Z,66.40
2022-12-19T20:29:40.968Z,54.88
2022-12-19T20:32:10.100Z,52.63
2022-12-19T20:34:36.644Z,54.13
2022-12-19T20:37:03.091Z,54.67
2022-12-19T20:39:29.530Z,54.55
2022-12-19T20:41:55.924Z,51.80
2022-12-19T20:44:24.679Z,57.38
2022-12-19T20:46:51.964Z,47.85
2022-12-19T20:49:18.679Z,51.65
2022-12-19T20:51:47.087Z,53.35
2022-12-19T20:54:14.876Z,53.22
2022-12-19T20:56:41.804Z,53.80
2022-12-19T20:59:09.540Z,56.15
2022-12-19T21:01:36.115Z,52.83
2022-12-19T21:04:02.797Z,49.55
2022-12-19T21:06:29.399Z,54.17
2022-12-19T21:08:56.182Z,58.63
2022-12-19T21:11:23.072Z,55.63
2022-12-19T21:13:49.518Z,57.38
2022-12-19T21:16:17.775Z,62.38
2022-12-19T21:18:45.183Z,54.88
2022-12-19T21:21:19.273Z,57.35
2022-12-19T21:23:46.323Z,56.92
2022-12-19T21:26:13.096Z,53.50
2022-12-19T21:28:39.579Z,49.17
2022-12-19T21:31:14.057Z,62.53
2022-12-19T21:33:40.620Z,80.90
2022-12-19T21:36:12.147Z,68.38
2022-12-19T21:38:38.677Z,63.35
2022-12-19T21:41:05.943Z,57.30
2022-12-19T21:43:32.880Z,58.80
2022-12-19T21:46:05.349Z,87.63
2022-12-19T21:48:34.709Z,116.60
2022-12-19T21:51:01.098Z,76.28
2022-12-19T21:53:27.483Z,55.88
2022-12-19T21:56:01.269Z,50.28
2022-12-19T21:58:27.659Z,48.53
2022-12-19T22:01:07.895Z,52.92
2022-12-19T22:03:34.948Z,54.40
2022-12-19T22:06:01.442Z,54.28
2022-12-19T22:08:28.259Z,49.70
2022-12-19T22:10:54.706Z,71.38
2022-12-19T22:13:21.336Z,50.22
2022-12-19T22:15:47.821Z,50.33
2022-12-19T22:18:14.278Z,53.50
2022-12-19T22:20:41.665Z,51.42
2022-12-19T22:23:13.238Z,55.70
2022-12-19T22:25:39.932Z,47.53
2022-12-19T22:28:06.383Z,47.25
2022-12-19T22:30:34.161Z,54.65
2022-12-19T22:33:00.630Z,53.70
2022-12-19T22:35:27.003Z,47.90
2022-12-19T22:37:53.616Z,56.45
2022-12-19T22:40:20.022Z,55.90
2022-12-19T22:42:46.415Z,52.92
2022-12-19T22:45:12.766Z,45.53
2022-12-19T22:47:42.358Z,49.05
2022-12-19T22:50:10.433Z,49.25
2022-12-19T22:52:38.814Z,36.70
2022-12-19T22:55:06.244Z,37.40
2022-12-19T22:57:32.697Z,36.47
2022-12-19T22:59:59.126Z,37.42
2022-12-19T23:02:25.749Z,39.85
2022-12-19T23:04:52.257Z,37.92
2022-12-19T23:07:18.704Z,37.83
2022-12-19T23:09:45.131Z,38.45
2022-12-19T23:12:11.670Z,40.40
2022-12-19T23:14:38.081Z,39.22
2022-12-19T23:17:04.574Z,39.13
2022-12-19T23:19:31.030Z,36.55
2022-12-19T23:21:58.722Z,36.20
2022-12-19T23:24:25.189Z,35.83
2022-12-19T23:26:52.699Z,33.15
2022-12-19T23:29:19.108Z,28.98
2022-12-19T23:31:46.934Z,30.85
2022-12-19T23:34:13.891Z,30.90
2022-12-19T23:39:26.960Z,34.08
2022-12-19T23:41:53.381Z,32.30
2022-12-19T23:44:20.143Z,31.10
2022-12-19T23:46:46.682Z,34.00
2022-12-19T23:49:13.284Z,35.05
2022-12-19T23:51:39.645Z,32.40
2022-12-19T23:54:06.106Z,28.92
2022-12-19T23:56:33.013Z,28.40
2022-12-19T23:58:59.768Z,29.83
